Time;durP1;ratioP1;P1;durP2;ratioP2;P2;SDS_P1;SDS_P2;PMS_P1;PMS_P2;Temp;Humidity;BMP_temperature;BMP_pressure;BME280_temperature;BME280_humidity;BME280_pressure;Samples;Min_cycle;Max_cycle;Signal;HPM_P1;HPM_P2
2024/04/02 00:00:03;;;;;;;;;;;9.50;99.90;;;;;;4997621;28;19913;-85
2024/04/02 00:02:29;;;;;;;;;;;9.50;99.90;;;;;;5000310;28;19921;-86
2024/04/02 00:04:54;;;;;;;;;;;9.50;99.90;;;;;;4995701;28;19928;-87
2024/04/02 00:07:20;;;;;;;;;;;9.40;99.90;;;;;;5006434;28;19921;-86
2024/04/02 00:09:45;;;;;;;;;;;9.40;99.90;;;;;;4997722;28;19913;-86
2024/04/02 00:12:11;;;;;;;;;;;9.40;99.90;;;;;;4998031;28;20008;-86
2024/04/02 00:14:36;;;;;;;;;;;9.40;99.90;;;;;;4992036;28;19913;-85
2024/04/02 00:17:02;;;;;;;;;;;9.40;99.90;;;;;;4987759;28;19960;-86
2024/04/02 00:19:27;;;;;;;;;;;9.40;99.90;;;;;;4987430;28;19962;-84
2024/04/02 00:21:53;;;;;;;;;;;9.40;99.90;;;;;;4995134;28;19913;-86
2024/04/02 00:24:18;;;;;;;;;;;9.40;99.90;;;;;;5003770;28;20323;-84
2024/04/02 00:26:44;;;;;;;;;;;9.40;99.90;;;;;;4999552;28;19964;-85
2024/04/02 00:29:10;;;;;;;;;;;9.40;99.90;;;;;;4995936;28;19918;-85
2024/04/02 00:31:35;;;;;;;;;;;9.30;99.90;;;;;;4993627;28;19914;-86
2024/04/02 00:34:01;;;;;;;;;;;9.40;99.90;;;;;;4985091;28;19960;-84
2024/04/02 00:36:26;;;;;;;;;;;9.30;99.90;;;;;;5000635;28;19936;-86
2024/04/02 00:38:52;;;;;;;;;;;9.30;99.90;;;;;;5005370;28;19991;-85
2024/04/02 00:41:17;;;;;;;;;;;9.40;99.90;;;;;;4991926;28;19914;-86
2024/04/02 00:43:43;;;;;;;;;;;9.40;99.90;;;;;;5001374;28;19981;-85
2024/04/02 00:46:08;;;;;;;;;;;9.40;99.90;;;;;;5002547;28;20545;-85
2024/04/02 00:48:34;;;;;;;;;;;9.30;99.90;;;;;;5003087;28;19945;-86
2024/04/02 00:50:59;;;;;;;;;;;9.30;99.90;;;;;;5001460;28;20627;-83
2024/04/02 00:53:25;;;;;;;;;;;9.30;99.90;;;;;;4981094;28;19917;-85
2024/04/02 00:55:51;;;;;;;;;;;9.30;99.90;;;;;;5007228;28;19972;-85
2024/04/02 00:58:16;;;;;;;;;;;9.20;99.90;;;;;;4990974;28;19922;-86
2024/04/02 01:00:43;;;;;;;;;;;9.20;99.90;;;;;;5002567;28;19937;-84
2024/04/02 01:03:09;;;;;;;;;;;9.20;99.90;;;;;;4978793;28;19917;-86
2024/04/02 01:05:35;;;;;;;;;;;9.20;99.90;;;;;;4994392;28;19948;-85
2024/04/02 01:08:02;;;;;;;;;;;9.20;99.90;;;;;;4993189;28;19952;-87
2024/04/02 01:10:28;;;;;;;;;;;9.20;99.90;;;;;;4994305;28;19939;-84
2024/04/02 01:12:53;;;;;;;;;;;9.20;99.90;;;;;;5004043;28;19913;-86
2024/04/02 01:15:20;;;;;;;;;;;9.20;99.90;;;;;;5004987;28;19925;-84
2024/04/02 01:17:45;;;;;;;;;;;9.20;99.90;;;;;;4989944;28;19925;-86
2024/04/02 01:20:11;;;;;;;;;;;9.20;99.90;;;;;;4983085;28;19914;-84
2024/04/02 01:22:36;;;;;;;;;;;9.20;99.90;;;;;;4987474;28;19921;-85
2024/04/02 01:25:01;;;;;;;;;;;9.20;99.90;;;;;;5003087;28;20000;-85
2024/04/02 01:27:27;;;;;;;;;;;9.20;99.90;;;;;;5002795;28;19968;-84
2024/04/02 01:29:53;;;;;;;;;;;9.20;99.90;;;;;;4984314;28;19945;-85
2024/04/02 01:32:19;;;;;;;;;;;9.30;99.90;;;;;;4996917;28;19913;-85
2024/04/02 01:34:44;;;;;;;;;;;9.30;99.90;;;;;;5000195;28;20001;-85
2024/04/02 01:37:10;;;;;;;;;;;9.30;99.90;;;;;;4994825;28;19913;-83
2024/04/02 01:39:35;;;;;;;;;;;9.30;99.90;;;;;;4993137;28;19991;-82
2024/04/02 01:42:01;;;;;;;;;;;9.30;99.90;;;;;;4995754;28;19941;-85
2024/04/02 01:44:26;;;;;;;;;;;9.40;99.90;;;;;;4999174;28;19937;-86
2024/04/02 01:46:52;;;;;;;;;;;9.30;99.90;;;;;;5004398;28;19929;-84
2024/04/02 01:49:17;;;;;;;;;;;9.30;99.90;;;;;;5004945;28;20016;-85
2024/04/02 01:51:44;;;;;;;;;;;9.30;99.90;;;;;;5004353;28;19917;-85
2024/04/02 01:54:09;;;;;;;;;;;9.30;99.90;;;;;;4997415;28;19913;-86
2024/04/02 01:56:34;;;;;;;;;;;9.20;99.90;;;;;;5003524;28;19913;-85
2024/04/02 01:59:00;;;;;;;;;;;9.20;99.90;;;;;;4989995;28;20398;-87
2024/04/02 02:01:26;;;;;;;;;;;9.20;99.90;;;;;;5008599;28;19975;-86
2024/04/02 02:03:51;;;;;;;;;;;9.20;99.90;;;;;;5007325;28;19922;-86
2024/04/02 02:06:16;;;;;;;;;;;9.20;99.90;;;;;;5006370;28;19922;-86
2024/04/02 02:08:42;;;;;;;;;;;9.20;99.90;;;;;;5006815;28;19968;-86
2024/04/02 02:11:07;;;;;;;;;;;9.20;99.90;;;;;;5000481;28;19918;-85
2024/04/02 02:13:34;;;;;;;;;;;9.20;99.90;;;;;;5002795;28;19953;-85
2024/04/02 02:16:03;;;;;;;;;;;9.20;99.90;;;;;;5001468;28;19920;-85
2024/04/02 02:18:29;;;;;;;;;;;9.20;99.90;;;;;;5007042;28;19921;-86
2024/04/02 02:20:55;;;;;;;;;;;9.10;99.90;;;;;;5007342;28;19913;-86
2024/04/02 02:23:20;;;;;;;;;;;9.10;99.90;;;;;;4993438;28;19920;-87
2024/04/02 02:25:46;;;;;;;;;;;9.10;99.90;;;;;;5002146;28;20460;-85
2024/04/02 02:28:11;;;;;;;;;;;9.10;1.00;;;;;;5007059;28;19921;-85
2024/04/02 02:30:37;;;;;;;;;;;9.10;1.00;;;;;;5003114;28;20904;-87
2024/04/02 02:33:02;;;;;;;;;;;9.00;1.00;;;;;;5006592;28;19922;-86
2024/04/02 02:35:28;;;;;;;;;;;9.00;1.00;;;;;;5007576;28;20352;-84
2024/04/02 02:37:53;;;;;;;;;;;9.00;1.00;;;;;;5006518;28;20295;-86
2024/04/02 02:40:19;;;;;;;;;;;9.00;1.00;;;;;;5003530;28;19913;-86
2024/04/02 02:42:44;;;;;;;;;;;8.90;1.00;;;;;;5007874;28;19913;-86
2024/04/02 02:45:10;;;;;;;;;;;8.90;1.00;;;;;;4990312;28;19917;-87
2024/04/02 02:47:35;;;;;;;;;;;8.90;1.00;;;;;;4993063;28;20299;-85
2024/04/02 02:50:01;;;;;;;;;;;8.90;1.00;;;;;;5001641;28;19921;-85
2024/04/02 02:52:26;;;;;;;;;;;8.90;1.00;;;;;;4978022;28;19914;-85
2024/04/02 02:54:52;;;;;;;;;;;8.80;1.00;;;;;;4997912;28;19920;-83
2024/04/02 02:57:17;;;;;;;;;;;8.80;1.00;;;;;;5004600;28;20367;-86
2024/04/02 02:59:46;;;;;;;;;;;8.80;1.00;;;;;;4994316;28;19914;-83
2024/04/02 03:02:11;;;;;;;;;;;8.80;1.00;;;;;;5006572;28;19945;-86
2024/04/02 03:04:37;;;;;;;;;;;8.70;1.00;;;;;;5012956;28;19920;-86
2024/04/02 03:07:02;;;;;;;;;;;8.80;1.00;;;;;;5019582;28;19968;-86
2024/04/02 03:09:28;;;;;;;;;;;8.70;1.00;;;;;;4992677;28;19918;-83
2024/04/02 03:11:53;;;;;;;;;;;8.70;1.00;;;;;;5002580;28;19913;-82
2024/04/02 03:14:19;;;;;;;;;;;8.70;1.00;;;;;;5003582;28;20368;-83
2024/04/02 03:16:44;;;;;;;;;;;8.70;1.00;;;;;;4992855;28;20312;-83
2024/04/02 03:19:10;;;;;;;;;;;8.70;1.00;;;;;;5002445;28;20000;-84
2024/04/02 03:21:35;;;;;;;;;;;8.60;1.00;;;;;;5009584;28;20384;-86
2024/04/02 03:24:01;;;;;;;;;;;8.60;1.00;;;;;;5008036;28;19917;-83
2024/04/02 03:26:26;;;;;;;;;;;8.70;1.00;;;;;;5003972;28;19937;-85
2024/04/02 03:28:52;;;;;;;;;;;8.70;1.00;;;;;;5001758;28;19928;-85
2024/04/02 03:31:17;;;;;;;;;;;8.80;1.00;;;;;;4999993;28;19918;-85
2024/04/02 03:33:43;;;;;;;;;;;8.80;1.00;;;;;;5001226;28;20000;-84
2024/04/02 03:36:09;;;;;;;;;;;8.80;1.00;;;;;;4992482;28;20313;-84
2024/04/02 03:38:34;;;;;;;;;;;8.90;1.00;;;;;;4996468;28;19967;-84
2024/04/02 03:41:10;;;;;;;;;;;8.90;1.00;;;;;;4996952;28;20409;-85
2024/04/02 03:43:36;;;;;;;;;;;9.00;1.00;;;;;;4985720;28;20566;-84
2024/04/02 03:46:02;;;;;;;;;;;9.00;1.00;;;;;;4981585;28;19925;-83
2024/04/02 03:48:28;;;;;;;;;;;9.10;1.00;;;;;;4999567;28;20447;-84
2024/04/02 03:50:53;;;;;;;;;;;9.10;1.00;;;;;;4989001;28;19925;-84
2024/04/02 03:53:19;;;;;;;;;;;9.20;1.00;;;;;;5005398;28;20437;-84
2024/04/02 03:55:44;;;;;;;;;;;9.20;1.00;;;;;;5001220;28;19913;-83
2024/04/02 03:58:10;;;;;;;;;;;9.30;1.00;;;;;;5001393;28;20469;-84
2024/04/02 04:00:41;;;;;;;;;;;9.30;1.00;;;;;;5000360;28;19924;-84
2024/04/02 04:03:06;;;;;;;;;;;9.40;1.00;;;;;;4998858;28;19913;-83
2024/04/02 04:05:31;;;;;;;;;;;9.40;1.00;;;;;;5001439;28;19924;-84
2024/04/02 04:07:57;;;;;;;;;;;9.40;1.00;;;;;;5004975;28;20365;-84
2024/04/02 04:10:22;;;;;;;;;;;9.40;1.00;;;;;;4991807;28;19982;-84
2024/04/02 04:12:48;;;;;;;;;;;9.40;1.00;;;;;;5003107;28;19924;-86
2024/04/02 04:15:13;;;;;;;;;;;9.40;1.00;;;;;;5003710;28;19932;-85
2024/04/02 04:17:39;;;;;;;;;;;9.40;1.00;;;;;;4985399;28;20469;-84
2024/04/02 04:20:05;;;;;;;;;;;9.40;1.00;;;;;;5004524;28;19921;-84
2024/04/02 04:22:30;;;;;;;;;;;9.40;1.00;;;;;;4984675;28;20008;-85
2024/04/02 04:25:01;;;;;;;;;;;9.50;1.00;;;;;;4983833;28;19917;-85
2024/04/02 04:27:31;;;;;;;;;;;9.50;1.00;;;;;;4999960;28;19914;-84
2024/04/02 04:30:00;;;;;;;;;;;9.50;1.00;;;;;;5001425;28;20339;-84
2024/04/02 04:32:25;;;;;;;;;;;9.50;1.00;;;;;;5005420;28;19961;-83
2024/04/02 04:34:51;;;;;;;;;;;9.50;1.00;;;;;;4998969;28;20362;-85
2024/04/02 04:37:17;;;;;;;;;;;9.50;1.00;;;;;;5004913;28;20295;-85
2024/04/02 04:39:42;;;;;;;;;;;9.60;1.00;;;;;;4988374;28;19922;-83
2024/04/02 04:42:08;;;;;;;;;;;9.60;1.00;;;;;;5000781;28;19925;-84
2024/04/02 04:44:33;;;;;;;;;;;9.60;1.00;;;;;;5005935;28;20292;-85
2024/04/02 04:46:59;;;;;;;;;;;9.60;1.00;;;;;;4989854;28;19925;-85
2024/04/02 04:49:24;;;;;;;;;;;9.60;1.00;;;;;;5008979;28;19914;-85
2024/04/02 04:51:50;;;;;;;;;;;9.60;1.00;;;;;;5026912;23;19985;-84
2024/04/02 04:54:15;;;;;;;;;;;9.60;1.00;;;;;;5006677;28;19957;-85
2024/04/02 04:56:41;;;;;;;;;;;9.70;1.00;;;;;;5001380;28;20339;-84
2024/04/02 04:59:06;;;;;;;;;;;9.70;1.00;;;;;;4992614;28;19918;-85
2024/04/02 05:01:32;;;;;;;;;;;9.70;1.00;;;;;;5005564;28;20100;-84
2024/04/02 05:03:57;;;;;;;;;;;9.70;1.00;;;;;;5008394;28;20400;-85
2024/04/02 05:06:23;;;;;;;;;;;9.70;1.00;;;;;;4989386;28;19933;-85
2024/04/02 05:08:48;;;;;;;;;;;9.80;1.00;;;;;;4983262;28;19929;-86
2024/04/02 05:11:14;;;;;;;;;;;9.80;1.00;;;;;;5003127;28;19992;-85
2024/04/02 05:13:40;;;;;;;;;;;9.80;1.00;;;;;;5001430;28;19914;-85
2024/04/02 05:16:06;;;;;;;;;;;9.80;1.00;;;;;;5005818;28;19898;-84
2024/04/02 05:18:35;;;;;;;;;;;9.80;1.00;;;;;;5007508;28;20215;-85
2024/04/02 05:21:00;;;;;;;;;;;9.90;1.00;;;;;;5004414;28;19968;-84
2024/04/02 05:23:26;;;;;;;;;;;9.90;1.00;;;;;;5006685;28;19917;-84
2024/04/02 05:25:58;;;;;;;;;;;9.90;1.00;;;;;;5008025;28;19941;-85
2024/04/02 05:28:24;;;;;;;;;;;9.90;1.00;;;;;;5002233;28;19914;-87
2024/04/02 05:30:49;;;;;;;;;;;10.00;1.00;;;;;;5006944;28;19921;-86
2024/04/02 05:33:15;;;;;;;;;;;10.00;1.00;;;;;;5001739;28;19918;-85
2024/04/02 05:35:40;;;;;;;;;;;10.00;1.00;;;;;;5005331;28;19927;-86
2024/04/02 05:38:06;;;;;;;;;;;10.10;1.00;;;;;;5006845;28;19928;-85
2024/04/02 05:40:32;;;;;;;;;;;10.10;1.00;;;;;;5007511;28;19913;-85
2024/04/02 05:42:58;;;;;;;;;;;10.10;1.00;;;;;;4991592;28;19929;-86
2024/04/02 05:45:24;;;;;;;;;;;10.20;1.00;;;;;;5004098;28;19913;-84
2024/04/02 05:47:50;;;;;;;;;;;10.20;1.00;;;;;;4978831;28;19925;-84
2024/04/02 05:50:17;;;;;;;;;;;10.40;1.00;;;;;;4989727;28;20415;-82
2024/04/02 05:52:43;;;;;;;;;;;10.60;99.90;;;;;;5006163;28;19921;-82
2024/04/02 05:55:09;;;;;;;;;;;12.20;99.90;;;;;;4980864;28;20012;-82
2024/04/02 05:57:40;;;;;;;;;;;14.10;99.90;;;;;;4999556;28;19922;-82
2024/04/02 06:00:05;;;;;;;;;;;15.20;99.90;;;;;;4996161;28;19921;-83
2024/04/02 06:02:31;;;;;;;;;;;15.10;1.00;;;;;;4993890;28;19929;-83
2024/04/02 06:04:57;;;;;;;;;;;14.40;1.00;;;;;;4995959;28;19964;-84
2024/04/02 06:07:23;;;;;;;;;;;13.90;90.40;;;;;;4994705;28;20438;-83
2024/04/02 06:09:49;;;;;;;;;;;13.40;99.90;;;;;;5002366;28;19914;-82
2024/04/02 06:12:14;;;;;;;;;;;13.00;99.90;;;;;;5000725;28;19921;-83
2024/04/02 06:14:40;;;;;;;;;;;12.60;1.00;;;;;;5000536;28;19945;-84
2024/04/02 06:17:05;;;;;;;;;;;12.40;99.90;;;;;;4983371;28;20289;-84
2024/04/02 06:19:31;;;;;;;;;;;12.20;1.00;;;;;;4998860;28;19914;-83
2024/04/02 06:21:57;;;;;;;;;;;12.40;1.00;;;;;;4984078;28;19917;-83
2024/04/02 06:24:24;;;;;;;;;;;12.80;99.90;;;;;;4999571;28;19936;-83
2024/04/02 06:26:50;;;;;;;;;;;14.70;99.90;;;;;;4997290;28;19914;-85
2024/04/02 06:29:15;;;;;;;;;;;16.60;1.00;;;;;;4999736;28;19924;-84
2024/04/02 06:31:40;;;;;;;;;;;16.40;1.00;;;;;;5000927;28;19914;-85
2024/04/02 06:34:06;;;;;;;;;;;15.70;1.00;;;;;;5000992;28;19918;-84
2024/04/02 06:36:31;;;;;;;;;;;15.00;1.00;;;;;;4998215;28;19969;-84
2024/04/02 06:38:57;;;;;;;;;;;14.40;1.00;;;;;;5003723;28;19914;-84
2024/04/02 06:41:23;;;;;;;;;;;14.00;1.00;;;;;;4980567;28;19918;-84
2024/04/02 06:43:48;;;;;;;;;;;13.90;1.00;;;;;;4994709;28;20182;-83
2024/04/02 06:46:13;;;;;;;;;;;13.90;1.00;;;;;;4997272;28;19922;-85
2024/04/02 06:48:39;;;;;;;;;;;13.90;1.00;;;;;;4978762;28;19977;-86
2024/04/02 06:51:06;;;;;;;;;;;14.70;1.00;;;;;;4990415;28;19914;-84
2024/04/02 06:53:32;;;;;;;;;;;14.60;1.00;;;;;;5005265;28;19914;-85
2024/04/02 06:55:57;;;;;;;;;;;14.70;1.00;;;;;;5003957;28;19918;-85
2024/04/02 06:58:23;;;;;;;;;;;14.60;1.00;;;;;;5004534;28;20242;-84
2024/04/02 07:00:49;;;;;;;;;;;14.20;1.00;;;;;;4986354;28;19914;-85
2024/04/02 07:03:22;;;;;;;;;;;13.90;1.00;;;;;;5007661;28;19922;-83
2024/04/02 07:05:48;;;;;;;;;;;13.60;1.00;;;;;;5004144;28;19914;-85
2024/04/02 07:08:14;;;;;;;;;;;13.40;1.00;;;;;;5010978;28;19984;-85
2024/04/02 07:10:41;;;;;;;;;;;13.10;1.00;;;;;;5006768;28;20398;-84
2024/04/02 07:13:07;;;;;;;;;;;12.90;1.00;;;;;;5002352;28;20434;-83
2024/04/02 07:15:32;;;;;;;;;;;12.80;1.00;;;;;;5003159;28;19990;-83
2024/04/02 07:17:58;;;;;;;;;;;12.70;17.50;;;;;;5000660;28;19917;-83
2024/04/02 07:20:23;;;;;;;;;;;12.80;40.50;;;;;;4994834;28;19922;-83
2024/04/02 07:22:49;;;;;;;;;;;12.90;93.40;;;;;;5001775;28;19922;-84
2024/04/02 07:25:14;;;;;;;;;;;13.00;48.00;;;;;;4994335;28;20324;-83
2024/04/02 07:27:40;;;;;;;;;;;12.90;7.50;;;;;;4993159;28;19977;-83
2024/04/02 07:30:06;;;;;;;;;;;12.80;1.00;;;;;;4993218;28;19937;-82
2024/04/02 07:32:32;;;;;;;;;;;12.70;3.80;;;;;;4991802;28;19941;-83
2024/04/02 07:34:57;;;;;;;;;;;12.70;1.00;;;;;;4975407;28;19961;-84
2024/04/02 07:37:24;;;;;;;;;;;12.60;1.00;;;;;;4993188;28;20340;-83
2024/04/02 07:39:50;;;;;;;;;;;12.60;1.00;;;;;;4975316;28;19914;-83
2024/04/02 07:42:15;;;;;;;;;;;12.60;1.00;;;;;;4993248;28;19936;-83
2024/04/02 07:44:41;;;;;;;;;;;12.60;1.00;;;;;;4998855;28;19914;-81
2024/04/02 07:47:06;;;;;;;;;;;12.70;1.00;;;;;;5000330;28;19924;-84
2024/04/02 07:49:33;;;;;;;;;;;12.80;1.00;;;;;;5000266;28;19984;-84
2024/04/02 07:51:58;;;;;;;;;;;13.00;1.00;;;;;;5004677;28;19917;-83
2024/04/02 07:54:24;;;;;;;;;;;13.30;1.00;;;;;;5000857;28;19968;-83
2024/04/02 07:56:49;;;;;;;;;;;13.60;1.00;;;;;;4993768;28;19972;-83
2024/04/02 07:59:14;;;;;;;;;;;13.80;1.00;;;;;;5002559;28;19945;-83
2024/04/02 08:01:40;;;;;;;;;;;14.00;1.00;;;;;;4995090;28;20379;-83
2024/04/02 08:04:05;;;;;;;;;;;14.10;1.00;;;;;;4999135;28;19924;-84
2024/04/02 08:06:31;;;;;;;;;;;14.10;1.00;;;;;;4993583;28;19914;-83
2024/04/02 08:08:57;;;;;;;;;;;14.10;1.00;;;;;;4988102;28;19964;-83
2024/04/02 08:11:23;;;;;;;;;;;13.90;1.00;;;;;;5004018;28;19914;-83
2024/04/02 08:13:48;;;;;;;;;;;13.70;1.00;;;;;;5006794;28;19913;-81
2024/04/02 08:16:17;;;;;;;;;;;13.50;1.00;;;;;;4998722;28;19918;-83
2024/04/02 08:18:46;;;;;;;;;;;13.30;1.00;;;;;;4992680;28;19971;-84
2024/04/02 08:21:12;;;;;;;;;;;13.20;1.00;;;;;;4981395;28;19914;-82
2024/04/02 08:23:38;;;;;;;;;;;13.60;1.00;;;;;;4998882;28;19932;-82
2024/04/02 08:26:03;;;;;;;;;;;13.80;1.00;;;;;;5003734;28;20388;-82
2024/04/02 08:28:29;;;;;;;;;;;13.70;1.00;;;;;;5008188;28;19914;-83
2024/04/02 08:30:55;;;;;;;;;;;13.50;1.00;;;;;;4988908;28;19932;-84
2024/04/02 08:33:21;;;;;;;;;;;13.30;1.00;;;;;;5008549;28;19920;-84
2024/04/02 08:35:49;;;;;;;;;;;13.20;1.00;;;;;;5001753;28;19921;-82
2024/04/02 08:38:15;;;;;;;;;;;13.30;1.00;;;;;;5000086;28;19918;-82
2024/04/02 08:40:40;;;;;;;;;;;13.40;1.00;;;;;;4999438;28;19917;-83
2024/04/02 08:43:06;;;;;;;;;;;13.50;1.00;;;;;;4980903;28;19924;-83
2024/04/02 08:45:32;;;;;;;;;;;13.50;1.00;;;;;;4980232;28;19913;-82
2024/04/02 08:47:57;;;;;;;;;;;13.60;1.00;;;;;;4991932;28;19914;-83
2024/04/02 08:50:23;;;;;;;;;;;13.90;1.00;;;;;;4992229;28;20004;-83
2024/04/02 08:52:51;;;;;;;;;;;14.10;1.00;;;;;;4991312;28;19918;-84
2024/04/02 08:55:19;;;;;;;;;;;14.20;1.00;;;;;;4981233;28;19949;-85
2024/04/02 08:57:47;;;;;;;;;;;14.50;1.00;;;;;;4994980;28;19945;-84
2024/04/02 09:00:13;;;;;;;;;;;14.60;1.00;;;;;;5004132;28;20005;-81
2024/04/02 09:02:38;;;;;;;;;;;14.60;1.00;;;;;;4981730;28;20661;-83
2024/04/02 09:05:04;;;;;;;;;;;14.60;1.00;;;;;;4992263;28;19944;-83
2024/04/02 09:07:29;;;;;;;;;;;14.60;1.00;;;;;;4994463;28;19918;-84
2024/04/02 09:09:55;;;;;;;;;;;14.80;1.00;;;;;;4999370;28;19921;-82
2024/04/02 09:12:20;;;;;;;;;;;14.80;1.00;;;;;;4996586;28;19949;-83
2024/04/02 09:14:46;;;;;;;;;;;14.60;1.00;;;;;;4981800;28;19941;-83
2024/04/02 09:17:12;;;;;;;;;;;14.50;1.00;;;;;;4981213;28;19924;-83
2024/04/02 09:19:37;;;;;;;;;;;14.40;1.00;;;;;;4996259;28;19913;-83
2024/04/02 09:22:04;;;;;;;;;;;14.30;1.00;;;;;;4993779;28;19914;-82
2024/04/02 09:24:29;;;;;;;;;;;14.20;1.00;;;;;;4995984;28;19937;-83
2024/04/02 09:26:55;;;;;;;;;;;14.10;1.00;;;;;;4992296;28;19914;-82
2024/04/02 09:29:20;;;;;;;;;;;14.10;1.00;;;;;;4980363;28;19914;-83
2024/04/02 09:31:47;;;;;;;;;;;14.30;1.00;;;;;;4998586;28;20323;-84
2024/04/02 09:34:14;;;;;;;;;;;14.60;1.00;;;;;;4997296;28;20295;-85
2024/04/02 09:36:41;;;;;;;;;;;14.70;1.00;;;;;;4997567;28;19980;-83
2024/04/02 09:39:10;;;;;;;;;;;14.60;1.00;;;;;;4994998;28;20012;-83
2024/04/02 09:41:40;;;;;;;;;;;14.60;1.00;;;;;;4995115;28;19985;-83
2024/04/02 09:44:11;;;;;;;;;;;15.00;1.00;;;;;;4981334;28;19945;-83
2024/04/02 09:46:38;;;;;;;;;;;15.50;1.00;;;;;;4980822;28;19918;-84
2024/04/02 09:49:04;;;;;;;;;;;15.70;99.90;;;;;;4988947;28;19910;-83
2024/04/02 09:51:29;;;;;;;;;;;16.00;99.90;;;;;;5008202;28;20006;-84
2024/04/02 09:53:55;;;;;;;;;;;16.70;99.90;;;;;;5010434;28;19914;-85
2024/04/02 09:56:22;;;;;;;;;;;18.60;99.90;;;;;;5006167;28;19926;-85
2024/04/02 09:58:47;;;;;;;;;;;20.40;99.90;;;;;;5010089;28;19918;-85
2024/04/02 10:01:15;;;;;;;;;;;21.20;99.90;;;;;;5010303;28;20005;-83
2024/04/02 10:03:43;;;;;;;;;;;22.20;99.90;;;;;;4974300;28;19928;-83
2024/04/02 10:06:09;;;;;;;;;;;21.90;99.90;;;;;;5004388;28;20467;-82
2024/04/02 10:08:35;;;;;;;;;;;21.00;99.90;;;;;;5007745;28;19914;-84
2024/04/02 10:11:01;;;;;;;;;;;20.40;99.90;;;;;;4986072;28;19930;-82
2024/04/02 10:13:34;;;;;;;;;;;20.10;99.90;;;;;;4997990;28;20319;-83
2024/04/02 10:16:00;;;;;;;;;;;19.60;99.90;;;;;;5007894;28;19918;-83
2024/04/02 10:18:26;;;;;;;;;;;19.50;99.90;;;;;;5009042;28;19925;-82
2024/04/02 10:20:56;;;;;;;;;;;19.30;99.90;;;;;;5010671;28;19914;-82
2024/04/02 10:23:22;;;;;;;;;;;19.00;99.90;;;;;;5006810;28;19914;-82
2024/04/02 10:25:47;;;;;;;;;;;18.50;99.90;;;;;;5004218;28;19921;-82
2024/04/02 10:28:13;;;;;;;;;;;18.30;99.90;;;;;;4989635;28;19914;-83
2024/04/02 10:30:43;;;;;;;;;;;18.20;99.90;;;;;;5008229;28;19914;-82
2024/04/02 10:33:16;;;;;;;;;;;17.90;99.90;;;;;;5004320;28;19913;-81
2024/04/02 10:35:42;;;;;;;;;;;17.50;99.90;;;;;;5007467;28;19925;-82
2024/04/02 10:38:07;;;;;;;;;;;17.10;99.90;;;;;;5007422;28;19914;-82
2024/04/02 10:40:34;;;;;;;;;;;16.70;99.90;;;;;;5007877;28;19921;-82
2024/04/02 10:43:00;;;;;;;;;;;16.30;99.90;;;;;;4998924;28;19922;-81
2024/04/02 10:45:27;;;;;;;;;;;15.90;99.90;;;;;;4986962;28;19918;-83
2024/04/02 10:47:53;;;;;;;;;;;15.40;1.00;;;;;;4974819;28;19981;-82
2024/04/02 10:50:19;;;;;;;;;;;15.10;1.00;;;;;;5009348;28;19937;-83
2024/04/02 10:52:45;;;;;;;;;;;14.80;17.00;;;;;;5001926;28;19978;-82
2024/04/02 10:55:10;;;;;;;;;;;14.50;99.90;;;;;;4982948;28;19945;-85
2024/04/02 10:57:37;;;;;;;;;;;14.50;99.90;;;;;;4993236;28;20730;-83
2024/04/02 11:00:08;;;;;;;;;;;14.60;99.90;;;;;;4989753;28;19941;-84
2024/04/02 11:02:34;;;;;;;;;;;14.60;99.90;;;;;;4996930;28;20004;-84
2024/04/02 11:05:00;;;;;;;;;;;14.60;98.50;;;;;;4979722;28;20015;-83
2024/04/02 11:07:26;;;;;;;;;;;14.50;75.00;;;;;;4993843;28;19917;-83
2024/04/02 11:09:51;;;;;;;;;;;14.60;15.90;;;;;;4994826;28;19922;-84
2024/04/02 11:12:17;;;;;;;;;;;14.70;1.00;;;;;;4996246;28;19918;-83
2024/04/02 11:14:42;;;;;;;;;;;14.80;1.00;;;;;;4997210;28;19926;-83
2024/04/02 11:17:08;;;;;;;;;;;14.80;1.00;;;;;;4997900;28;19953;-84
2024/04/02 11:19:35;;;;;;;;;;;14.90;1.00;;;;;;4990470;28;19921;-83
2024/04/02 11:27:30;;;;;;;;;;;14.90;1.00;;;;;;4999774;28;19968;-83
2024/04/02 11:29:56;;;;;;;;;;;14.90;1.00;;;;;;4977377;28;19953;-83
2024/04/02 11:32:21;;;;;;;;;;;15.00;1.00;;;;;;4983960;28;19921;-83
2024/04/02 11:35:00;;;;;;;;;;;15.20;1.00;;;;;;5004569;28;19914;-84
2024/04/02 11:37:29;;;;;;;;;;;15.50;1.00;;;;;;5002981;28;19929;-83
2024/04/02 11:39:55;;;;;;;;;;;15.70;1.00;;;;;;4991071;28;20411;-83
2024/04/02 11:42:21;;;;;;;;;;;15.60;1.00;;;;;;4986750;28;19914;-83
2024/04/02 11:44:47;;;;;;;;;;;15.30;1.00;;;;;;5004113;28;19914;-83
2024/04/02 11:47:15;;;;;;;;;;;14.90;1.00;;;;;;5008729;28;19977;-83
2024/04/02 11:49:41;;;;;;;;;;;14.60;1.00;;;;;;4987180;28;19914;-83
2024/04/02 11:52:06;;;;;;;;;;;14.40;1.00;;;;;;4990641;28;19949;-83
2024/04/02 11:54:32;;;;;;;;;;;14.30;99.90;;;;;;5006343;28;19913;-83
2024/04/02 12:02:29;;;;;;;;;;;14.00;99.90;;;;;;5003907;28;19968;-84
2024/04/02 12:04:54;;;;;;;;;;;13.70;99.90;;;;;;4988581;28;20355;-83
2024/04/02 12:07:21;;;;;;;;;;;13.70;1.00;;;;;;4996159;28;19922;-83
2024/04/02 12:09:49;;;;;;;;;;;13.70;1.00;;;;;;4997191;28;19980;-83
2024/04/02 12:12:15;;;;;;;;;;;13.80;57.60;;;;;;4996043;28;19921;-84
2024/04/02 12:14:40;;;;;;;;;;;13.80;99.90;;;;;;4981743;28;20540;-84
2024/04/02 12:17:06;;;;;;;;;;;13.90;99.90;;;;;;4978309;28;19922;-83
2024/04/02 12:19:32;;;;;;;;;;;14.10;1.00;;;;;;4991735;28;20388;-84
2024/04/02 12:21:57;;;;;;;;;;;14.30;1.00;;;;;;4986339;28;19914;-83
2024/04/02 12:24:23;;;;;;;;;;;14.70;99.90;;;;;;4981996;28;19914;-84
2024/04/02 12:26:48;;;;;;;;;;;14.80;99.90;;;;;;4985739;28;19918;-83
2024/04/02 12:29:14;;;;;;;;;;;15.10;99.90;;;;;;4992305;28;20293;-83
2024/04/02 12:31:39;;;;;;;;;;;15.20;60.40;;;;;;4995644;28;20009;-84
2024/04/02 12:34:05;;;;;;;;;;;15.40;1.00;;;;;;4979951;28;19910;-83
2024/04/02 12:36:30;;;;;;;;;;;15.50;1.00;;;;;;4995093;28;19925;-83
2024/04/02 12:38:55;;;;;;;;;;;15.40;1.00;;;;;;4993729;28;19976;-83
2024/04/02 12:41:21;;;;;;;;;;;15.30;1.00;;;;;;4987359;28;20016;-82
2024/04/02 12:43:47;;;;;;;;;;;15.30;1.00;;;;;;4987931;28;19910;-82
2024/04/02 12:46:12;;;;;;;;;;;15.30;1.00;;;;;;4985431;28;20004;-85
2024/04/02 12:48:38;;;;;;;;;;;15.20;1.00;;;;;;4985498;28;19953;-84
2024/04/02 12:51:03;;;;;;;;;;;15.20;1.00;;;;;;4991306;28;19922;-84
2024/04/02 12:53:29;;;;;;;;;;;15.00;1.00;;;;;;4998688;28;19905;-84
2024/04/02 12:55:54;;;;;;;;;;;14.90;1.00;;;;;;5004169;28;19925;-85
2024/04/02 12:58:20;;;;;;;;;;;15.00;1.00;;;;;;4998701;28;19918;-83
2024/04/02 13:00:45;;;;;;;;;;;15.10;1.00;;;;;;5003018;28;19917;-84
2024/04/02 13:03:11;;;;;;;;;;;15.20;1.00;;;;;;4988479;28;19913;-84
2024/04/02 13:05:39;;;;;;;;;;;15.30;1.00;;;;;;4999720;28;20404;-83
2024/04/02 13:08:05;;;;;;;;;;;15.30;1.00;;;;;;4999886;28;19950;-82
2024/04/02 13:10:50;;;;;;;;;;;15.20;1.00;;;;;;4999751;28;19961;-84
2024/04/02 13:13:16;;;;;;;;;;;15.50;1.00;;;;;;4984504;28;19914;-81
2024/04/02 13:15:41;;;;;;;;;;;15.70;1.00;;;;;;5007347;28;19952;-83
2024/04/02 13:18:07;;;;;;;;;;;15.90;1.00;;;;;;5002366;28;19920;-84
2024/04/02 13:20:32;;;;;;;;;;;16.00;1.00;;;;;;5005935;28;19982;-82
2024/04/02 13:22:59;;;;;;;;;;;16.20;1.00;;;;;;4997545;28;19949;-81
2024/04/02 13:25:28;;;;;;;;;;;16.20;1.00;;;;;;4984758;28;19978;-82
2024/04/02 13:27:53;;;;;;;;;;;16.30;1.00;;;;;;5000383;28;19956;-81
2024/04/02 13:30:22;;;;;;;;;;;16.30;1.00;;;;;;4997715;28;19914;-81
2024/04/02 13:32:48;;;;;;;;;;;16.30;1.00;;;;;;4992375;28;19945;-82
2024/04/02 13:35:17;;;;;;;;;;;16.20;1.00;;;;;;4971717;28;19985;-82
2024/04/02 13:37:43;;;;;;;;;;;16.20;1.00;;;;;;4984157;28;20509;-81
2024/04/02 13:40:10;;;;;;;;;;;16.20;99.90;;;;;;4994977;28;19949;-81
2024/04/02 13:42:35;;;;;;;;;;;16.30;99.90;;;;;;4999312;28;19925;-82
2024/04/02 13:45:01;;;;;;;;;;;16.50;99.90;;;;;;5000227;28;19914;-82
2024/04/02 13:47:26;;;;;;;;;;;16.50;99.90;;;;;;5003725;28;19913;-81
2024/04/02 13:49:52;;;;;;;;;;;16.50;99.90;;;;;;4986555;28;19981;-82
2024/04/02 13:52:17;;;;;;;;;;;16.70;99.90;;;;;;4984511;28;19918;-82
2024/04/02 13:54:46;;;;;;;;;;;16.60;99.90;;;;;;4982358;28;19913;-82
2024/04/02 13:57:11;;;;;;;;;;;16.40;99.90;;;;;;4996681;28;19924;-82
2024/04/02 13:59:37;;;;;;;;;;;16.10;99.90;;;;;;4998946;28;19961;-82
2024/04/02 14:02:02;;;;;;;;;;;15.80;99.90;;;;;;4995140;28;19914;-81
2024/04/02 14:04:28;;;;;;;;;;;15.50;1.00;;;;;;4989495;28;19953;-82
2024/04/02 14:06:53;;;;;;;;;;;15.40;1.00;;;;;;4988916;28;19953;-82
2024/04/02 14:09:19;;;;;;;;;;;15.50;1.00;;;;;;5004409;28;19914;-82
2024/04/02 14:11:44;;;;;;;;;;;15.80;1.00;;;;;;4998690;28;19937;-81
2024/04/02 14:14:11;;;;;;;;;;;16.10;1.00;;;;;;4979709;28;19945;-82
2024/04/02 14:16:37;;;;;;;;;;;16.30;1.00;;;;;;5006565;28;20368;-81
2024/04/02 14:19:03;;;;;;;;;;;16.10;99.90;;;;;;4997677;28;19913;-82
2024/04/02 14:21:28;;;;;;;;;;;16.00;99.90;;;;;;5001312;28;19921;-81
2024/04/02 14:23:54;;;;;;;;;;;15.90;99.90;;;;;;5001163;28;19910;-83
2024/04/02 14:26:20;;;;;;;;;;;16.20;99.90;;;;;;5009413;28;19909;-83
2024/04/02 14:28:45;;;;;;;;;;;16.60;99.90;;;;;;5009711;28;19918;-82
2024/04/02 14:31:19;;;;;;;;;;;16.60;99.90;;;;;;5007565;28;19910;-83
2024/04/02 14:33:44;;;;;;;;;;;16.60;99.90;;;;;;5001595;28;19953;-83